sensor_id;sensor_type;location;lat;lon;timestamp;pressure;altitude;pressure_sealevel;temperature;humidity
69402;BME280;56589;51.992;5.924;2024-02-21T00:00:53;101618.81;;;8.50;86.27
69402;BME280;56589;51.992;5.924;2024-02-21T00:03:19;101615.25;;;8.52;86.71
69402;BME280;56589;51.992;5.924;2024-02-21T00:05:48;101604.78;;;8.52;86.61
69402;BME280;56589;51.992;5.924;2024-02-21T00:08:14;101605.63;;;8.53;86.24
69402;BME280;56589;51.992;5.924;2024-02-21T00:10:40;101602.19;;;8.51;86.61
69402;BME280;56589;51.992;5.924;2024-02-21T00:13:05;101606.59;;;8.50;86.31
69402;BME280;56589;51.992;5.924;2024-02-21T00:15:31;101596.00;;;8.53;86.46
69402;BME280;56589;51.992;5.924;2024-02-21T00:17:57;101601.25;;;8.53;86.32
69402;BME280;56589;51.992;5.924;2024-02-21T00:20:23;101601.25;;;8.53;86.50
69402;BME280;56589;51.992;5.924;2024-02-21T00:22:51;101600.44;;;8.51;86.23
69402;BME280;56589;51.992;5.924;2024-02-21T00:25:17;101591.72;;;8.51;86.50
69402;BME280;56589;51.992;5.924;2024-02-21T00:27:43;101587.34;;;8.51;86.47
69402;BME280;56589;51.992;5.924;2024-02-21T00:30:13;101589.06;;;8.52;86.61
69402;BME280;56589;51.992;5.924;2024-02-21T00:32:39;101576.75;;;8.54;86.24
69402;BME280;56589;51.992;5.924;2024-02-21T00:35:05;101578.59;;;8.52;86.22
69402;BME280;56589;51.992;5.924;2024-02-21T00:37:31;101584.63;;;8.54;86.77
69402;BME280;56589;51.992;5.924;2024-02-21T00:39:59;101572.44;;;8.53;86.44
69402;BME280;56589;51.992;5.924;2024-02-21T00:42:25;101580.41;;;8.50;86.62
69402;BME280;56589;51.992;5.924;2024-02-21T00:44:51;101569.03;;;8.51;86.70
69402;BME280;56589;51.992;5.924;2024-02-21T00:47:17;101569.94;;;8.50;86.59
69402;BME280;56589;51.992;5.924;2024-02-21T00:49:43;101562.16;;;8.49;86.29
69402;BME280;56589;51.992;5.924;2024-02-21T00:52:08;101556.88;;;8.50;86.80
69402;BME280;56589;51.992;5.924;2024-02-21T00:54:34;101545.53;;;8.50;86.44
69402;BME280;56589;51.992;5.924;2024-02-21T00:57:03;101549.84;;;8.51;86.40
69402;BME280;56589;51.992;5.924;2024-02-21T00:59:29;101539.47;;;8.49;86.63
69402;BME280;56589;51.992;5.924;2024-02-21T01:01:54;101531.53;;;8.51;86.59
69402;BME280;56589;51.992;5.924;2024-02-21T01:04:20;101533.31;;;8.50;86.86
69402;BME280;56589;51.992;5.924;2024-02-21T01:06:46;101529.00;;;8.49;86.76
69402;BME280;56589;51.992;5.924;2024-02-21T01:09:12;101523.75;;;8.49;86.67
69402;BME280;56589;51.992;5.924;2024-02-21T01:11:38;101533.38;;;8.49;86.75
69402;BME280;56589;51.992;5.924;2024-02-21T01:14:06;101529.84;;;8.50;86.57
69402;BME280;56589;51.992;5.924;2024-02-21T01:16:32;101530.69;;;8.50;86.58
69402;BME280;56589;51.992;5.924;2024-02-21T01:18:58;101514.13;;;8.50;86.70
69402;BME280;56589;51.992;5.924;2024-02-21T01:21:23;101514.13;;;8.50;86.48
69402;BME280;56589;51.992;5.924;2024-02-21T01:23:49;101534.22;;;8.49;86.31
69402;BME280;56589;51.992;5.924;2024-02-21T01:26:15;101518.59;;;8.48;86.66
69402;BME280;56589;51.992;5.924;2024-02-21T01:28:41;101522.91;;;8.49;86.78
69402;BME280;56589;51.992;5.924;2024-02-21T01:31:10;101521.16;;;8.49;86.51
69402;BME280;56589;51.992;5.924;2024-02-21T01:33:35;101532.53;;;8.48;86.45
69402;BME280;56589;51.992;5.924;2024-02-21T01:36:01;101533.38;;;8.49;86.69
69402;BME280;56589;51.992;5.924;2024-02-21T01:38:28;101542.16;;;8.48;86.37
69402;BME280;56589;51.992;5.924;2024-02-21T01:40:53;101539.53;;;8.48;86.72
69402;BME280;56589;51.992;5.924;2024-02-21T01:43:20;101544.78;;;8.48;86.86
69402;BME280;56589;51.992;5.924;2024-02-21T01:45:48;101532.66;;;8.45;86.75
69402;BME280;56589;51.992;5.924;2024-02-21T01:48:19;101530.03;;;8.45;86.91
69402;BME280;56589;51.992;5.924;2024-02-21T01:50:45;101523.09;;;8.44;86.94
69402;BME280;56589;51.992;5.924;2024-02-21T01:53:16;101518.72;;;8.45;86.62
69402;BME280;56589;51.992;5.924;2024-02-21T01:55:45;101514.34;;;8.45;86.73
69402;BME280;56589;51.992;5.924;2024-02-21T01:58:12;101516.00;;;8.48;86.68
69402;BME280;56589;51.992;5.924;2024-02-21T02:00:40;101510.81;;;8.46;86.98
69402;BME280;56589;51.992;5.924;2024-02-21T02:03:08;101500.41;;;8.45;86.89
69402;BME280;56589;51.992;5.924;2024-02-21T02:05:37;101496.91;;;8.46;86.90
69402;BME280;56589;51.992;5.924;2024-02-21T02:08:04;101493.47;;;8.43;86.81
69402;BME280;56589;51.992;5.924;2024-02-21T02:10:30;101492.56;;;8.45;87.02
69402;BME280;56589;51.992;5.924;2024-02-21T02:12:56;101485.63;;;8.43;86.70
69402;BME280;56589;51.992;5.924;2024-02-21T02:15:21;101482.09;;;8.45;86.96
69402;BME280;56589;51.992;5.924;2024-02-21T02:17:47;101486.47;;;8.44;86.69
69402;BME280;56589;51.992;5.924;2024-02-21T02:20:13;101478.69;;;8.42;86.73
69402;BME280;56589;51.992;5.924;2024-02-21T02:22:43;101472.69;;;8.40;86.75
69402;BME280;56589;51.992;5.924;2024-02-21T02:25:15;101470.13;;;8.39;86.80
69402;BME280;56589;51.992;5.924;2024-02-21T02:27:44;101464.09;;;8.37;86.81
69402;BME280;56589;51.992;5.924;2024-02-21T02:30:11;101463.25;;;8.36;86.90
69402;BME280;56589;51.992;5.924;2024-02-21T02:32:37;101465.03;;;8.36;87.08
69402;BME280;56589;51.992;5.924;2024-02-21T02:35:04;101459.81;;;8.36;86.79
69402;BME280;56589;51.992;5.924;2024-02-21T02:37:30;101443.34;;;8.34;87.03
69402;BME280;56589;51.992;5.924;2024-02-21T02:39:56;101445.03;;;8.35;86.96
69402;BME280;56589;51.992;5.924;2024-02-21T02:42:24;101451.09;;;8.35;86.81
69402;BME280;56589;51.992;5.924;2024-02-21T02:44:50;101430.09;;;8.37;86.78
69402;BME280;56589;51.992;5.924;2024-02-21T02:47:16;101436.25;;;8.36;87.00
69402;BME280;56589;51.992;5.924;2024-02-21T02:49:41;101439.78;;;8.35;87.13
69402;BME280;56589;51.992;5.924;2024-02-21T02:52:07;101427.63;;;8.34;86.83
69402;BME280;56589;51.992;5.924;2024-02-21T02:54:33;101432.88;;;8.34;87.09
69402;BME280;56589;51.992;5.924;2024-02-21T02:56:59;101437.25;;;8.33;87.07
69402;BME280;56589;51.992;5.924;2024-02-21T02:59:27;101443.44;;;8.31;86.71
69402;BME280;56589;51.992;5.924;2024-02-21T03:01:53;101444.28;;;8.31;86.69
69402;BME280;56589;51.992;5.924;2024-02-21T03:04:19;101436.53;;;8.30;86.75
69402;BME280;56589;51.992;5.924;2024-02-21T03:06:44;101432.22;;;8.29;86.93
69402;BME280;56589;51.992;5.924;2024-02-21T03:09:10;101434.75;;;8.30;86.91
69402;BME280;56589;51.992;5.924;2024-02-21T03:11:37;101427.75;;;8.31;87.08
69402;BME280;56589;51.992;5.924;2024-02-21T03:14:02;101432.13;;;8.30;87.24
69402;BME280;56589;51.992;5.924;2024-02-21T03:16:31;101432.91;;;8.32;86.70
69402;BME280;56589;51.992;5.924;2024-02-21T03:18:56;101420.75;;;8.31;86.96
69402;BME280;56589;51.992;5.924;2024-02-21T03:21:22;101421.59;;;8.32;87.17
69402;BME280;56589;51.992;5.924;2024-02-21T03:23:48;101420.69;;;8.33;87.18
69402;BME280;56589;51.992;5.924;2024-02-21T03:26:14;101425.06;;;8.32;86.72
69402;BME280;56589;51.992;5.924;2024-02-21T03:28:39;101430.28;;;8.32;87.17
69402;BME280;56589;51.992;5.924;2024-02-21T03:31:05;101429.44;;;8.32;86.77
69402;BME280;56589;51.992;5.924;2024-02-21T03:33:34;101430.28;;;8.32;86.76
69402;BME280;56589;51.992;5.924;2024-02-21T03:35:59;101425.06;;;8.32;86.76
69402;BME280;56589;51.992;5.924;2024-02-21T03:38:25;101421.69;;;8.30;86.74
69402;BME280;56589;51.992;5.924;2024-02-21T03:40:51;101416.53;;;8.29;87.07
69402;BME280;56589;51.992;5.924;2024-02-21T03:43:17;101410.44;;;8.28;86.82
69402;BME280;56589;51.992;5.924;2024-02-21T03:45:42;101406.97;;;8.28;86.81
69402;BME280;56589;51.992;5.924;2024-02-21T03:48:08;101397.28;;;8.30;87.15
69402;BME280;56589;51.992;5.924;2024-02-21T03:50:37;101397.28;;;8.30;86.96
69402;BME280;56589;51.992;5.924;2024-02-21T03:53:03;101392.97;;;8.29;86.75
69402;BME280;56589;51.992;5.924;2024-02-21T03:55:29;101384.28;;;8.28;86.75
69402;BME280;56589;51.992;5.924;2024-02-21T03:57:54;101390.34;;;8.29;86.80
69402;BME280;56589;51.992;5.924;2024-02-21T04:00:20;101394.66;;;8.30;87.05
69402;BME280;56589;51.992;5.924;2024-02-21T04:02:46;101390.28;;;8.30;87.12
69402;BME280;56589;51.992;5.924;2024-02-21T04:05:15;101388.50;;;8.31;86.84
69402;BME280;56589;51.992;5.924;2024-02-21T04:07:43;101384.03;;;8.33;87.21
69402;BME280;56589;51.992;5.924;2024-02-21T04:10:09;101387.47;;;8.35;87.18
69402;BME280;56589;51.992;5.924;2024-02-21T04:12:35;101386.47;;;8.37;86.96
69402;BME280;56589;51.992;5.924;2024-02-21T04:15:01;101383.84;;;8.37;86.79
69402;BME280;56589;51.992;5.924;2024-02-21T04:17:27;101388.16;;;8.38;86.72
69402;BME280;56589;51.992;5.924;2024-02-21T04:20:01;101383.84;;;8.37;87.09
69402;BME280;56589;51.992;5.924;2024-02-21T04:22:29;101383.00;;;8.37;86.61
69402;BME280;56589;51.992;5.924;2024-02-21T04:24:59;101382.06;;;8.38;86.72
69402;BME280;56589;51.992;5.924;2024-02-21T04:27:25;101381.09;;;8.40;87.08
69402;BME280;56589;51.992;5.924;2024-02-21T04:29:51;101378.41;;;8.42;87.04
69402;BME280;56589;51.992;5.924;2024-02-21T04:32:17;101369.72;;;8.41;86.72
69402;BME280;56589;51.992;5.924;2024-02-21T04:34:43;101368.94;;;8.39;86.31
69402;BME280;56589;51.992;5.924;2024-02-21T04:37:08;101371.59;;;8.38;86.41
69402;BME280;56589;51.992;5.924;2024-02-21T04:39:34;101374.22;;;8.38;86.51
69402;BME280;56589;51.992;5.924;2024-02-21T04:42:03;101368.06;;;8.39;86.34
69402;BME280;56589;51.992;5.924;2024-02-21T04:44:29;101365.59;;;8.36;86.53
69402;BME280;56589;51.992;5.924;2024-02-21T04:46:55;101363.91;;;8.35;86.91
69402;BME280;56589;51.992;5.924;2024-02-21T04:49:20;101360.44;;;8.34;86.31
69402;BME280;56589;51.992;5.924;2024-02-21T04:51:46;101365.69;;;8.34;86.75
69402;BME280;56589;51.992;5.924;2024-02-21T04:54:12;101362.22;;;8.34;86.51
69402;BME280;56589;51.992;5.924;2024-02-21T04:56:38;101357.97;;;8.31;86.48
69402;BME280;56589;51.992;5.924;2024-02-21T04:59:06;101351.13;;;8.29;86.28
69402;BME280;56589;51.992;5.924;2024-02-21T05:01:32;101348.50;;;8.29;86.54
69402;BME280;56589;51.992;5.924;2024-02-21T05:03:58;101338.09;;;8.27;86.60
69402;BME280;56589;51.992;5.924;2024-02-21T05:06:23;101327.69;;;8.26;86.65
69402;BME280;56589;51.992;5.924;2024-02-21T05:08:49;101331.09;;;8.28;86.24
69402;BME280;56589;51.992;5.924;2024-02-21T05:11:15;101329.25;;;8.30;86.19
69402;BME280;56589;51.992;5.924;2024-02-21T05:13:41;101324.03;;;8.30;86.43
69402;BME280;56589;51.992;5.924;2024-02-21T05:16:09;101316.19;;;8.30;86.39
69402;BME280;56589;51.992;5.924;2024-02-21T05:18:35;101325.03;;;8.27;86.12
69402;BME280;56589;51.992;5.924;2024-02-21T05:21:01;101321.50;;;8.28;86.37
69402;BME280;56589;51.992;5.924;2024-02-21T05:23:27;101327.56;;;8.29;86.21
69402;BME280;56589;51.992;5.924;2024-02-21T05:25:52;101325.03;;;8.27;86.44
69402;BME280;56589;51.992;5.924;2024-02-21T05:28:18;101325.03;;;8.27;86.04
69402;BME280;56589;51.992;5.924;2024-02-21T05:30:44;101315.53;;;8.25;86.10
69402;BME280;56589;51.992;5.924;2024-02-21T05:33:12;101317.22;;;8.26;86.29
69402;BME280;56589;51.992;5.924;2024-02-21T05:35:38;101312.91;;;8.25;86.24
69402;BME280;56589;51.992;5.924;2024-02-21T05:38:04;101307.59;;;8.26;86.00
69402;BME280;56589;51.992;5.924;2024-02-21T05:40:30;101298.00;;;8.27;85.98
69402;BME280;56589;51.992;5.924;2024-02-21T05:42:56;101299.00;;;8.24;85.86
69402;BME280;56589;51.992;5.924;2024-02-21T05:45:21;101296.47;;;8.23;85.94
69402;BME280;56589;51.992;5.924;2024-02-21T05:47:47;101293.03;;;8.21;86.00
69402;BME280;56589;51.992;5.924;2024-02-21T05:50:15;101286.97;;;8.20;86.37
69402;BME280;56589;51.992;5.924;2024-02-21T05:52:41;101272.13;;;8.21;86.34
69402;BME280;56589;51.992;5.924;2024-02-21T05:55:07;101265.19;;;8.20;86.33
69402;BME280;56589;51.992;5.924;2024-02-21T05:57:33;101272.06;;;8.22;86.02
69402;BME280;56589;51.992;5.924;2024-02-21T05:59:59;101272.13;;;8.21;85.90
69402;BME280;56589;51.992;5.924;2024-02-21T06:02:25;101273.75;;;8.23;86.20
69402;BME280;56589;51.992;5.924;2024-02-21T06:04:51;101259.03;;;8.21;85.90
69402;BME280;56589;51.992;5.924;2024-02-21T06:07:19;101251.28;;;8.19;86.34
69402;BME280;56589;51.992;5.924;2024-02-21T06:09:45;101253.88;;;8.19;86.15
69402;BME280;56589;51.992;5.924;2024-02-21T06:12:11;101258.19;;;8.20;86.39
69402;BME280;56589;51.992;5.924;2024-02-21T06:14:36;101262.53;;;8.21;86.17
69402;BME280;56589;51.992;5.924;2024-02-21T06:17:03;101251.13;;;8.22;86.14
69402;BME280;56589;51.992;5.924;2024-02-21T06:19:28;101248.53;;;8.22;85.87
69402;BME280;56589;51.992;5.924;2024-02-21T06:21:54;101250.34;;;8.20;85.86
69402;BME280;56589;51.992;5.924;2024-02-21T06:24:22;101252.13;;;8.20;85.87
69402;BME280;56589;51.992;5.924;2024-02-21T06:26:48;101242.50;;;8.20;86.22
69402;BME280;56589;51.992;5.924;2024-02-21T06:29:14;101248.56;;;8.21;85.81
69402;BME280;56589;51.992;5.924;2024-02-21T06:31:40;101244.22;;;8.21;86.20
69402;BME280;56589;51.992;5.924;2024-02-21T06:34:06;101240.72;;;8.21;85.75
69402;BME280;56589;51.992;5.924;2024-02-21T06:36:32;101245.91;;;8.22;86.20
69402;BME280;56589;51.992;5.924;2024-02-21T06:38:58;101251.13;;;8.22;85.96
69402;BME280;56589;51.992;5.924;2024-02-21T06:41:27;101234.66;;;8.20;86.06
69402;BME280;56589;51.992;5.924;2024-02-21T06:43:53;101243.34;;;8.21;86.09
69402;BME280;56589;51.992;5.924;2024-02-21T06:46:25;101243.34;;;8.21;86.09
69402;BME280;56589;51.992;5.924;2024-02-21T06:48:52;101241.66;;;8.20;86.04
69402;BME280;56589;51.992;5.924;2024-02-21T06:51:18;101236.50;;;8.18;85.83
69402;BME280;56589;51.992;5.924;2024-02-21T06:53:44;101249.56;;;8.18;85.63
69402;BME280;56589;51.992;5.924;2024-02-21T06:56:10;101242.66;;;8.17;85.90
69402;BME280;56589;51.992;5.924;2024-02-21T06:58:39;101244.28;;;8.20;85.75
69402;BME280;56589;51.992;5.924;2024-02-21T07:01:05;101245.19;;;8.19;85.73
69402;BME280;56589;51.992;5.924;2024-02-21T07:03:31;101246.97;;;8.18;85.97
69402;BME280;56589;51.992;5.924;2024-02-21T07:05:57;101236.41;;;8.20;85.81
69402;BME280;56589;51.992;5.924;2024-02-21T07:08:23;101240.72;;;8.21;85.84
69402;BME280;56589;51.992;5.924;2024-02-21T07:10:50;101239.75;;;8.23;85.61
69402;BME280;56589;51.992;5.924;2024-02-21T07:13:16;101237.97;;;8.24;85.34
69402;BME280;56589;51.992;5.924;2024-02-21T07:15:46;101236.13;;;8.26;85.43
69402;BME280;56589;51.992;5.924;2024-02-21T07:18:12;101222.22;;;8.25;85.66
69402;BME280;56589;51.992;5.924;2024-02-21T07:20:39;101225.66;;;8.26;85.50
69402;BME280;56589;51.992;5.924;2024-02-21T07:23:04;101214.38;;;8.25;85.37
69402;BME280;56589;51.992;5.924;2024-02-21T07:25:32;101217.06;;;8.24;85.13
69402;BME280;56589;51.992;5.924;2024-02-21T07:27:58;101217.06;;;8.24;85.41
69402;BME280;56589;51.992;5.924;2024-02-21T07:30:26;101209.13;;;8.25;85.19
69402;BME280;56589;51.992;5.924;2024-02-21T07:32:57;101211.66;;;8.27;85.27
69402;BME280;56589;51.992;5.924;2024-02-21T07:35:23;101212.47;;;8.29;85.36
69402;BME280;56589;51.992;5.924;2024-02-21T07:37:48;101215.91;;;8.29;85.15
69402;BME280;56589;51.992;5.924;2024-02-21T07:40:16;101209.75;;;8.30;85.23
69402;BME280;56589;51.992;5.924;2024-02-21T07:42:42;101204.44;;;8.32;85.49
69402;BME280;56589;51.992;5.924;2024-02-21T07:45:09;101201.91;;;8.30;85.41
69402;BME280;56589;51.992;5.924;2024-02-21T07:47:36;101201.00;;;8.31;85.04
69402;BME280;56589;51.992;5.924;2024-02-21T07:50:06;101190.44;;;8.33;85.05
69402;BME280;56589;51.992;5.924;2024-02-21T07:52:33;101191.31;;;8.33;84.85
69402;BME280;56589;51.992;5.924;2024-02-21T07:54:58;101186.84;;;8.35;85.24
69402;BME280;56589;51.992;5.924;2024-02-21T07:57:24;101173.59;;;8.38;85.01
69402;BME280;56589;51.992;5.924;2024-02-21T07:59:50;101170.00;;;8.41;84.88
69402;BME280;56589;51.992;5.924;2024-02-21T08:02:16;101159.38;;;8.44;84.69
69402;BME280;56589;51.992;5.924;2024-02-21T08:04:42;101153.28;;;8.43;84.67
69402;BME280;56589;51.992;5.924;2024-02-21T08:07:11;101152.31;;;8.46;85.21
69402;BME280;56589;51.992;5.924;2024-02-21T08:09:39;101145.31;;;8.47;84.65
69402;BME280;56589;51.992;5.924;2024-02-21T08:12:06;101134.84;;;8.47;84.86
69402;BME280;56589;51.992;5.924;2024-02-21T08:14:33;101137.38;;;8.48;84.66
69402;BME280;56589;51.992;5.924;2024-02-21T08:16:59;101136.38;;;8.51;84.56
69402;BME280;56589;51.992;5.924;2024-02-21T08:19:25;101138.00;;;8.53;84.59
69402;BME280;56589;51.992;5.924;2024-02-21T08:21:53;101147.53;;;8.54;84.18
69402;BME280;56589;51.992;5.924;2024-02-21T08:24:22;101148.25;;;8.58;84.41
69402;BME280;56589;51.992;5.924;2024-02-21T08:26:48;101141.16;;;8.60;84.20
69402;BME280;56589;51.992;5.924;2024-02-21T08:29:13;101131.34;;;8.63;84.33
69402;BME280;56589;51.992;5.924;2024-02-21T08:31:39;101121.59;;;8.67;83.96
69402;BME280;56589;51.992;5.924;2024-02-21T08:34:05;101127.38;;;8.74;84.48
69402;BME280;56589;51.992;5.924;2024-02-21T08:36:31;101130.59;;;8.79;84.26
69402;BME280;56589;51.992;5.924;2024-02-21T08:38:58;101129.59;;;8.81;83.65
69402;BME280;56589;51.992;5.924;2024-02-21T08:41:27;101117.19;;;8.85;83.99
69402;BME280;56589;51.992;5.924;2024-02-21T08:43:53;101121.28;;;8.90;83.66
69402;BME280;56589;51.992;5.924;2024-02-21T08:46:19;101114.03;;;8.95;83.93
69402;BME280;56589;51.992;5.924;2024-02-21T08:48:45;101110.41;;;8.98;83.62
69402;BME280;56589;51.992;5.924;2024-02-21T08:51:12;101102.44;;;9.00;83.67
69402;BME280;56589;51.992;5.924;2024-02-21T08:53:37;101106.84;;;8.99;83.26
69402;BME280;56589;51.992;5.924;2024-02-21T08:56:05;101097.38;;;8.96;82.93
69402;BME280;56589;51.992;5.924;2024-02-21T08:58:35;101092.91;;;8.99;82.92
69402;BME280;56589;51.992;5.924;2024-02-21T09:01:01;101091.97;;;9.00;82.75
69402;BME280;56589;51.992;5.924;2024-02-21T09:03:26;101075.41;;;8.99;82.60
69402;BME280;56589;51.992;5.924;2024-02-21T09:05:52;101083.34;;;8.98;82.58
69402;BME280;56589;51.992;5.924;2024-02-21T09:08:18;101073.72;;;8.98;82.60
69402;BME280;56589;51.992;5.924;2024-02-21T09:10:44;101072.88;;;8.98;82.92
69402;BME280;56589;51.992;5.924;2024-02-21T09:13:10;101077.09;;;9.00;82.67
69402;BME280;56589;51.992;5.924;2024-02-21T09:15:38;101066.56;;;9.02;82.72
69402;BME280;56589;51.992;5.924;2024-02-21T09:18:04;101077.72;;;9.05;82.54
69402;BME280;56589;51.992;5.924;2024-02-21T09:20:33;101079.25;;;9.09;82.39
69402;BME280;56589;51.992;5.924;2024-02-21T09:22:58;101072.09;;;9.13;82.61
69402;BME280;56589;51.992;5.924;2024-02-21T09:25:24;101067.38;;;9.19;82.20
69402;BME280;56589;51.992;5.924;2024-02-21T09:27:50;101076.06;;;9.20;81.79
69402;BME280;56589;51.992;5.924;2024-02-21T09:30:16;101071.56;;;9.22;82.08
69402;BME280;56589;51.992;5.924;2024-02-21T09:32:45;101065.50;;;9.21;81.86
69402;BME280;56589;51.992;5.924;2024-02-21T09:35:11;101066.34;;;9.22;82.00
69402;BME280;56589;51.992;5.924;2024-02-21T09:37:37;101060.09;;;9.25;81.77
69402;BME280;56589;51.992;5.924;2024-02-21T09:40:03;101058.09;;;9.30;81.77
69402;BME280;56589;51.992;5.924;2024-02-21T09:42:36;101058.03;;;9.31;81.62
69402;BME280;56589;51.992;5.924;2024-02-21T09:45:07;101048.22;;;9.35;81.59
69402;BME280;56589;51.992;5.924;2024-02-21T09:47:48;101039.34;;;9.37;81.71
69402;BME280;56589;51.992;5.924;2024-02-21T09:50:26;101037.63;;;9.36;81.48
69402;BME280;56589;51.992;5.924;2024-02-21T09:52:54;101042.81;;;9.38;81.41
69402;BME280;56589;51.992;5.924;2024-02-21T09:55:22;101032.16;;;9.41;81.35
69402;BME280;56589;51.992;5.924;2024-02-21T09:57:50;101025.22;;;9.40;80.95
69402;BME280;56589;51.992;5.924;2024-02-21T10:00:17;101019.03;;;9.41;81.01
69402;BME280;56589;51.992;5.924;2024-02-21T10:02:46;101020.47;;;9.46;81.47
69402;BME280;56589;51.992;5.924;2024-02-21T10:05:12;101022.66;;;9.54;81.30
69402;BME280;56589;51.992;5.924;2024-02-21T10:07:38;101012.03;;;9.57;80.88
69402;BME280;56589;51.992;5.924;2024-02-21T10:10:05;101007.19;;;9.65;81.00
69402;BME280;56589;51.992;5.924;2024-02-21T10:12:31;101009.47;;;9.71;80.78
69402;BME280;56589;51.992;5.924;2024-02-21T10:15:00;100993.72;;;9.71;80.24
69402;BME280;56589;51.992;5.924;2024-02-21T10:17:26;100983.94;;;9.75;80.57
69402;BME280;56589;51.992;5.924;2024-02-21T10:19:55;100980.28;;;9.77;80.44
69402;BME280;56589;51.992;5.924;2024-02-21T10:22:31;100966.13;;;9.80;80.17
69402;BME280;56589;51.992;5.924;2024-02-21T10:25:07;100966.06;;;9.82;79.95
69402;BME280;56589;51.992;5.924;2024-02-21T10:27:33;100967.75;;;9.83;79.94
69402;BME280;56589;51.992;5.924;2024-02-21T10:29:59;100960.03;;;9.80;79.44
69402;BME280;56589;51.992;5.924;2024-02-21T10:32:25;100957.59;;;9.76;79.83
69402;BME280;56589;51.992;5.924;2024-02-21T10:35:03;100955.94;;;9.75;79.96
69402;BME280;56589;51.992;5.924;2024-02-21T10:37:30;100955.34;;;9.70;79.76
69402;BME280;56589;51.992;5.924;2024-02-21T10:39:56;100952.88;;;9.67;79.95
69402;BME280;56589;51.992;5.924;2024-02-21T10:42:22;100941.66;;;9.65;80.25
69402;BME280;56589;51.992;5.924;2024-02-21T10:44:50;100936.59;;;9.62;80.08
69402;BME280;56589;51.992;5.924;2024-02-21T10:47:17;100936.84;;;9.58;80.04
69402;BME280;56589;51.992;5.924;2024-02-21T10:49:44;100931.13;;;9.51;80.36
69402;BME280;56589;51.992;5.924;2024-02-21T10:52:17;100916.59;;;9.45;80.64
69402;BME280;56589;51.992;5.924;2024-02-21T10:54:56;100925.44;;;9.43;80.84
69402;BME280;56589;51.992;5.924;2024-02-21T10:57:27;100908.31;;;9.37;80.74
69402;BME280;56589;51.992;5.924;2024-02-21T10:59:55;100905.63;;;9.39;81.48
69402;BME280;56589;51.992;5.924;2024-02-21T11:02:23;100901.22;;;9.39;81.23
69402;BME280;56589;51.992;5.924;2024-02-21T11:04:50;100892.59;;;9.37;81.37
69402;BME280;56589;51.992;5.924;2024-02-21T11:07:21;100892.75;;;9.34;81.34
69402;BME280;56589;51.992;5.924;2024-02-21T11:09:51;100886.69;;;9.34;81.64
69402;BME280;56589;51.992;5.924;2024-02-21T11:12:20;100869.94;;;9.36;81.62
69402;BME280;56589;51.992;5.924;2024-02-21T11:14:47;100854.13;;;9.38;81.51
69402;BME280;56589;51.992;5.924;2024-02-21T11:17:16;100842.63;;;9.40;81.37
69402;BME280;56589;51.992;5.924;2024-02-21T11:19:43;100823.34;;;9.41;81.48
69402;BME280;56589;51.992;5.924;2024-02-21T11:22:14;100810.34;;;9.40;81.02
69402;BME280;56589;51.992;5.924;2024-02-21T11:24:44;100808.66;;;9.39;81.63
69402;BME280;56589;51.992;5.924;2024-02-21T11:27:11;100812.97;;;9.40;81.19
69402;BME280;56589;51.992;5.924;2024-02-21T11:29:42;100808.47;;;9.42;80.92
69402;BME280;56589;51.992;5.924;2024-02-21T11:32:09;100823.44;;;9.40;80.88
69402;BME280;56589;51.992;5.924;2024-02-21T11:34:36;100823.59;;;9.37;81.05
69402;BME280;56589;51.992;5.924;2024-02-21T11:37:02;100844.50;;;9.38;81.33
69402;BME280;56589;51.992;5.924;2024-02-21T11:39:38;100839.06;;;9.41;81.19
69402;BME280;56589;51.992;5.924;2024-02-21T11:42:09;100829.34;;;9.43;81.08
69402;BME280;56589;51.992;5.924;2024-02-21T11:44:38;100826.81;;;9.42;80.78
69402;BME280;56589;51.992;5.924;2024-02-21T11:47:06;100809.59;;;9.38;81.03
69402;BME280;56589;51.992;5.924;2024-02-21T11:49:37;100795.66;;;9.37;81.19
69402;BME280;56589;51.992;5.924;2024-02-21T11:52:05;100788.63;;;9.38;81.25
69402;BME280;56589;51.992;5.924;2024-02-21T11:54:31;100792.84;;;9.40;81.11
69402;BME280;56589;51.992;5.924;2024-02-21T11:56:57;100792.94;;;9.39;80.55
69402;BME280;56589;51.992;5.924;2024-02-21T11:59:26;100790.41;;;9.37;80.28
69402;BME280;56589;51.992;5.924;2024-02-21T12:01:52;100783.56;;;9.35;80.80
69402;BME280;56589;51.992;5.924;2024-02-21T12:04:19;100777.47;;;9.34;80.78
69402;BME280;56589;51.992;5.924;2024-02-21T12:06:48;100784.59;;;9.32;80.29
69402;BME280;56589;51.992;5.924;2024-02-21T12:09:14;100778.69;;;9.29;80.67
69402;BME280;56589;51.992;5.924;2024-02-21T12:11:40;100769.22;;;9.26;80.38
69402;BME280;56589;51.992;5.924;2024-02-21T12:14:06;100754.34;;;9.27;80.72
69402;BME280;56589;51.992;5.924;2024-02-21T12:16:35;100744.25;;;9.35;80.51
69402;BME280;56589;51.992;5.924;2024-02-21T12:19:01;100747.34;;;9.41;80.45
69402;BME280;56589;51.992;5.924;2024-02-21T12:21:30;100733.88;;;9.47;80.63
69402;BME280;56589;51.992;5.924;2024-02-21T12:23:56;100711.44;;;9.58;80.45
69402;BME280;56589;51.992;5.924;2024-02-21T12:26:22;100689.97;;;9.65;80.51
69402;BME280;56589;51.992;5.924;2024-02-21T12:28:48;100675.56;;;9.72;80.09
69402;BME280;56589;51.992;5.924;2024-02-21T12:31:14;100658.22;;;9.84;80.08
69402;BME280;56589;51.992;5.924;2024-02-21T12:33:43;100654.81;;;9.96;80.11
69402;BME280;56589;51.992;5.924;2024-02-21T12:36:09;100647.38;;;10.03;79.26
69402;BME280;56589;51.992;5.924;2024-02-21T12:38:35;100645.44;;;10.07;78.87
69402;BME280;56589;51.992;5.924;2024-02-21T12:41:02;100634.66;;;10.11;78.83
69402;BME280;56589;51.992;5.924;2024-02-21T12:43:28;100638.72;;;10.15;78.81
69402;BME280;56589;51.992;5.924;2024-02-21T12:45:56;100625.22;;;10.21;78.48
69402;BME280;56589;51.992;5.924;2024-02-21T12:48:22;100622.19;;;10.27;77.97
69402;BME280;56589;51.992;5.924;2024-02-21T12:50:51;100615.09;;;10.29;77.62
69402;BME280;56589;51.992;5.924;2024-02-21T12:53:17;100604.59;;;10.29;77.79
69402;BME280;56589;51.992;5.924;2024-02-21T12:55:43;100603.41;;;10.34;78.43
69402;BME280;56589;51.992;5.924;2024-02-21T12:58:09;100594.31;;;10.39;77.91